Time;durP1;ratioP1;P1;durP2;ratioP2;P2;SDS_P1;SDS_P2;PMS_P1;PMS_P2;Temp;Humidity;BMP_temperature;BMP_pressure;BME280_temperature;BME280_humidity;BME280_pressure;Samples;Min_cycle;Max_cycle;Signal;HPM_P1;HPM_P2
2022/01/01 00:02:17;;;;;;;23.52;15.80;;;;;;;12.74;89.75;101815.78;5086137;28;20048;-80
2022/01/01 00:04:44;;;;;;;24.15;15.23;;;;;;;12.78;89.65;101811.06;5088788;28;20051;-79
2022/01/01 00:07:11;;;;;;;22.80;16.42;;;;;;;12.67;89.91;101814.69;5086224;28;20045;-81
2022/01/01 00:09:42;;;;;;;24.45;14.50;;;;;;;12.66;89.90;101813.03;5089512;28;20056;-81
2022/01/01 00:12:10;;;;;;;26.60;16.15;;;;;;;12.67;90.18;101812.06;5082966;28;20502;-80
2022/01/01 00:14:38;;;;;;;22.67;14.98;;;;;;;12.62;90.20;101804.63;5093064;28;20075;-82
2022/01/01 00:17:09;;;;;;;125.38;110.13;;;;;;;12.59;90.51;101804.91;5089815;28;20132;-83
2022/01/01 00:19:36;;;;;;;65.32;52.83;;;;;;;12.53;90.66;101813.34;5090778;28;20563;-80
2022/01/01 00:22:04;;;;;;;29.42;18.38;;;;;;;12.62;90.20;101815.13;5086021;28;20044;-81
2022/01/01 00:24:30;;;;;;;28.58;17.60;;;;;;;12.53;90.62;101826.47;5085935;28;20048;-79
2022/01/01 00:27:00;;;;;;;27.02;17.38;;;;;;;12.49;90.72;101811.13;5079673;28;20269;-80
2022/01/01 00:29:27;;;;;;;23.30;17.10;;;;;;;12.51;90.88;101815.25;5081478;28;20079;-80
2022/01/01 00:31:56;;;;;;;27.63;17.95;;;;;;;12.51;90.64;101830.19;5086195;28;20036;-81
2022/01/01 00:34:24;;;;;;;29.90;19.52;;;;;;;12.66;90.24;101833.22;5090688;28;20076;-83
2022/01/01 00:36:54;;;;;;;28.77;19.13;;;;;;;12.57;90.52;101837.50;5087534;28;20123;-82
2022/01/01 00:39:23;;;;;;;28.40;18.15;;;;;;;12.67;90.12;101829.63;5091217;28;20052;-82
2022/01/01 00:41:49;;;;;;;28.13;18.23;;;;;;;12.61;90.30;101825.75;5098760;28;20044;-80
2022/01/01 00:44:25;;;;;;;28.35;18.52;;;;;;;12.65;90.22;101828.94;5097506;28;20071;-80
2022/01/01 00:46:52;;;;;;;25.40;18.40;;;;;;;12.65;90.54;101823.69;5097540;28;20117;-81
2022/01/01 00:49:22;;;;;;;30.55;18.23;;;;;;;12.64;90.40;101822.84;5098806;28;20052;-81
2022/01/01 00:52:02;;;;;;;23.85;16.75;;;;;;;12.69;90.40;101825.06;5099314;28;20043;-82
2022/01/01 00:54:32;;;;;;;24.10;16.35;;;;;;;12.73;89.86;101832.53;5097535;28;20115;-81
2022/01/01 00:57:07;;;;;;;27.83;16.52;;;;;;;12.72;89.89;101833.50;5096319;28;20055;-81
2022/01/01 00:59:38;;;;;;;27.40;16.23;;;;;;;12.69;89.82;101828.53;5090498;28;20424;-80
2022/01/01 01:02:12;;;;;;;31.83;16.75;;;;;;;12.67;89.76;101825.22;5096465;28;20484;-81
2022/01/01 01:04:44;;;;;;;26.50;16.60;;;;;;;12.60;89.79;101818.84;5094062;28;20105;-80
2022/01/01 01:07:12;;;;;;;22.58;15.15;;;;;;;12.65;89.78;101837.66;5096903;28;20079;-80
2022/01/01 01:09:42;;;;;;;25.88;15.82;;;;;;;12.56;90.24;101839.31;5097020;28;20410;-81
2022/01/01 01:12:09;;;;;;;28.05;15.57;;;;;;;12.59;89.69;101823.28;5097635;28;20051;-80
2022/01/01 01:14:41;;;;;;;31.42;15.27;;;;;;;12.67;89.44;101822.56;5096925;28;20054;-80
2022/01/01 01:17:11;;;;;;;30.27;14.80;;;;;;;12.70;89.23;101832.81;5096434;28;20044;-80
2022/01/01 01:19:38;;;;;;;26.70;14.73;;;;;;;12.67;89.19;101819.94;5096501;28;20071;-80
2022/01/01 01:22:05;;;;;;;25.98;15.13;;;;;;;12.70;88.93;101835.44;5096305;28;20477;-80
2022/01/01 01:24:34;;;;;;;22.52;13.90;;;;;;;12.72;88.83;101832.66;5095229;28;20540;-79
2022/01/01 01:27:04;;;;;;;19.90;13.70;;;;;;;12.76;88.71;101852.44;5096324;28;20052;-81
2022/01/01 01:29:32;;;;;;;22.48;14.80;;;;;;;12.63;88.66;101834.34;5095058;28;20048;-80
2022/01/01 01:35:03;;;;;;;28.98;14.95;;;;;;;12.69;88.76;101838.19;5091222;28;20055;-80
2022/01/01 01:37:33;;;;;;;27.98;14.73;;;;;;;12.66;88.42;101834.06;5095156;28;20055;-80
2022/01/01 01:40:06;;;;;;;28.17;13.70;;;;;;;12.73;88.08;101829.91;5095273;28;20044;-80
2022/01/01 01:42:36;;;;;;;22.55;13.75;;;;;;;12.71;87.52;101844.13;5096627;28;20040;-82
2022/01/01 01:45:28;;;;;;;22.35;13.00;;;;;;;12.69;87.38;101828.53;5098628;28;20058;-81
2022/01/01 01:50:56;;;;;;;23.02;13.02;;;;;;;12.70;86.41;101845.94;5085265;28;20060;-81
2022/01/01 01:53:23;;;;;;;23.23;13.05;;;;;;;12.78;86.18;101843.41;5089504;28;20084;-81
2022/01/01 01:55:52;;;;;;;21.20;11.98;;;;;;;12.64;86.65;101841.25;5096336;28;20075;-80
2022/01/01 01:58:19;;;;;;;27.05;12.57;;;;;;;12.61;87.01;101852.03;5089404;28;20087;-80
2022/01/01 02:01:20;;;;;;;20.73;11.35;;;;;;;12.66;86.51;101848.97;5084960;28;20418;-81
2022/01/01 02:03:47;;;;;;;21.02;11.27;;;;;;;12.61;86.34;101852.84;5074528;28;20056;-80
2022/01/01 02:06:15;;;;;;;19.25;11.55;;;;;;;12.66;86.25;101849.81;5077169;22;20099;-79
2022/01/01 02:08:45;;;;;;;20.77;11.00;;;;;;;12.53;86.70;101844.00;5035475;28;20109;-79
2022/01/01 02:11:20;;;;;;;21.40;11.02;;;;;;;12.59;86.42;101853.97;5034946;28;20132;-79
2022/01/01 02:14:02;;;;;;;19.85;11.20;;;;;;;12.62;86.08;101864.19;5035058;28;20064;-78
2022/01/01 02:16:37;;;;;;;18.97;11.03;;;;;;;12.54;86.91;101858.78;5033301;28;20092;-77
2022/01/01 02:19:04;;;;;;;20.05;11.98;;;;;;;12.60;86.48;101860.88;5033199;28;20087;-77
2022/01/01 02:21:32;;;;;;;22.02;11.60;;;;;;;12.58;86.74;101862.81;5033669;28;20041;-78
2022/01/01 02:23:59;;;;;;;18.88;11.32;;;;;;;12.61;86.71;101852.03;5034505;28;20140;-79
2022/01/01 02:26:34;;;;;;;24.75;11.63;;;;;;;12.57;86.70;101858.50;5036095;28;20140;-79
2022/01/01 02:29:03;;;;;;;20.23;11.90;;;;;;;12.62;86.76;101858.94;5037275;28;20049;-79
2022/01/01 02:31:32;;;;;;;25.52;14.70;;;;;;;12.56;87.27;101864.72;5037232;28;20080;-78
2022/01/01 02:34:03;;;;;;;23.65;13.35;;;;;;;12.58;87.38;101850.50;5037091;28;20088;-79
2022/01/01 02:36:37;;;;;;;20.92;13.05;;;;;;;12.48;87.55;101838.34;5038017;28;20057;-79
2022/01/01 02:39:12;;;;;;;26.52;13.38;;;;;;;12.63;87.34;101843.03;5037232;28;20107;-79
2022/01/01 02:41:40;;;;;;;27.10;14.48;;;;;;;12.58;87.76;101853.13;5036888;28;20092;-78
2022/01/01 02:44:08;;;;;;;23.65;13.80;;;;;;;12.62;87.85;101853.69;5037015;28;20291;-79
2022/01/01 02:46:35;;;;;;;22.35;12.85;;;;;;;12.62;87.78;101858.94;5058802;22;20049;-79
2022/01/01 02:49:03;;;;;;;22.73;13.35;;;;;;;12.49;88.21;101851.31;5057685;28;20494;-78
2022/01/01 02:51:30;;;;;;;22.05;12.73;;;;;;;12.43;88.62;101858.94;5057344;28;20079;-78
2022/01/01 02:54:02;;;;;;;23.33;14.43;;;;;;;12.36;88.97;101868.31;5057388;28;20057;-78
2022/01/01 02:56:30;;;;;;;25.67;13.85;;;;;;;12.34;89.13;101859.75;5072746;28;20061;-79
2022/01/01 02:58:57;;;;;;;23.00;13.30;;;;;;;12.40;88.99;101870.53;5081282;28;20135;-78
2022/01/01 03:01:24;;;;;;;21.58;13.40;;;;;;;12.38;89.32;101861.13;5080407;28;20179;-79
2022/01/01 03:03:51;;;;;;;20.05;12.57;;;;;;;12.53;88.47;101873.72;5080974;28;20049;-79
2022/01/01 03:06:19;;;;;;;22.73;11.95;;;;;;;12.48;88.59;101880.34;5081452;28;20055;-79
2022/01/01 03:08:47;;;;;;;26.10;13.13;;;;;;;12.48;88.47;101872.47;5087036;28;20052;-79
2022/01/01 03:11:15;;;;;;;19.50;12.07;;;;;;;12.45;88.44;101875.38;5081074;28;20041;-78
2022/01/01 03:13:42;;;;;;;21.95;12.13;;;;;;;12.46;88.33;101875.22;5079019;28;20040;-79
2022/01/01 03:16:09;;;;;;;22.95;12.15;;;;;;;12.43;88.71;101875.50;5080701;28;20100;-79
2022/01/01 03:18:37;;;;;;;24.42;12.63;;;;;;;12.43;88.72;101880.75;5080471;28;20049;-79
2022/01/01 03:21:07;;;;;;;19.98;12.65;;;;;;;12.34;89.19;101875.50;5079502;28;20072;-79
2022/01/01 03:23:35;;;;;;;18.13;11.82;;;;;;;12.30;89.11;101875.75;5078225;28;20048;-80
2022/01/01 03:26:02;;;;;;;20.67;12.10;;;;;;;12.33;89.22;101886.97;5078140;28;20054;-78
2022/01/01 03:28:30;;;;;;;20.90;11.20;;;;;;;12.28;89.73;101888.22;5076313;28;20075;-78
2022/01/01 03:30:58;;;;;;;21.48;11.32;;;;;;;12.22;89.87;101878.28;5077854;28;20131;-78
2022/01/01 03:33:27;;;;;;;19.25;11.57;;;;;;;12.22;89.74;101877.44;5077916;28;20056;-78
2022/01/01 03:35:54;;;;;;;19.75;11.50;;;;;;;12.21;89.78;101881.88;5079791;28;20316;-78
2022/01/01 03:38:20;;;;;;;20.92;11.75;;;;;;;12.25;89.75;101882.41;5078933;28;20055;-79
2022/01/01 03:40:47;;;;;;;23.23;11.95;;;;;;;12.20;89.95;101882.81;5078175;28;20214;-78
2022/01/01 03:43:14;;;;;;;20.58;10.77;;;;;;;12.21;89.80;101870.53;5078511;28;20486;-79
2022/01/01 03:45:42;;;;;;;21.90;11.45;;;;;;;12.23;89.82;101868.59;5077398;28;20088;-79
2022/01/01 03:48:09;;;;;;;26.75;12.52;;;;;;;12.20;89.64;101864.47;5078323;28;20519;-79
2022/01/01 03:50:38;;;;;;;21.35;11.40;;;;;;;12.18;89.78;101868.19;5077657;28;20088;-79
2022/01/01 03:53:06;;;;;;;18.42;10.80;;;;;;;12.21;89.30;101863.50;5077409;28;20514;-80
2022/01/01 03:55:34;;;;;;;19.88;12.05;;;;;;;12.32;89.17;101862.50;5078520;28;20053;-80
2022/01/01 03:58:04;;;;;;;20.35;11.10;;;;;;;12.29;88.82;101862.78;5078233;28;20075;-79
2022/01/01 04:00:33;;;;;;;16.63;9.75;;;;;;;12.27;89.04;101849.00;5078338;28;20045;-80
2022/01/01 04:03:09;;;;;;;17.35;9.77;;;;;;;12.26;89.13;101842.91;5078329;28;20664;-79
2022/01/01 04:05:40;;;;;;;22.00;11.55;;;;;;;12.18;88.97;101832.28;5079187;28;20074;-80
2022/01/01 04:08:10;;;;;;;16.85;10.57;;;;;;;12.22;88.91;101828.41;5077902;28;20135;-79
2022/01/01 04:10:40;;;;;;;18.35;9.98;;;;;;;12.31;88.52;101826.72;5077995;28;20068;-79
2022/01/01 04:13:10;;;;;;;17.05;10.18;;;;;;;12.31;88.02;101821.47;5079645;28;20044;-79
2022/01/01 04:15:39;;;;;;;17.23;9.43;;;;;;;12.26;88.48;101832.41;5077368;28;20082;-79
2022/01/01 04:18:11;;;;;;;18.33;8.80;;;;;;;12.24;88.38;101829.09;5079755;28;20062;-79
2022/01/01 04:20:41;;;;;;;14.93;9.00;;;;;;;12.21;88.72;101837.25;5078759;28;20067;-79
2022/01/01 04:23:10;;;;;;;15.77;9.50;;;;;;;12.21;88.56;101834.63;5078797;28;20056;-79
2022/01/01 04:25:38;;;;;;;14.93;8.98;;;;;;;12.20;88.69;101838.22;5077402;28;20125;-78
2022/01/01 04:28:09;;;;;;;19.25;8.40;;;;;;;12.25;88.19;101838.63;5075096;28;20048;-78
2022/01/01 04:30:39;;;;;;;15.15;8.50;;;;;;;12.24;87.96;101842.22;5075595;28;20055;-79
2022/01/01 04:33:12;;;;;;;17.15;8.25;;;;;;;12.23;88.00;101837.94;5074628;28;20048;-79
2022/01/01 04:35:40;;;;;;;17.10;8.68;;;;;;;12.21;87.73;101828.53;5075086;28;20517;-79
2022/01/01 04:38:17;;;;;;;15.90;8.73;;;;;;;12.18;87.65;101831.44;5075601;28;20048;-79
2022/01/01 04:40:48;;;;;;;18.67;8.13;;;;;;;12.17;87.51;101840.28;5076324;28;20053;-78
2022/01/01 04:43:16;;;;;;;13.75;7.97;;;;;;;12.21;87.10;101831.16;5075824;28;20075;-79
2022/01/01 04:45:43;;;;;;;13.35;7.28;;;;;;;12.20;87.01;101837.38;5077082;28;20044;-80
2022/01/01 04:48:12;;;;;;;15.32;6.97;;;;;;;12.18;86.92;101832.28;5077723;28;20123;-78
2022/01/01 04:50:38;;;;;;;17.98;7.55;;;;;;;12.23;86.75;101837.94;5077329;28;20075;-79
2022/01/01 04:53:06;;;;;;;15.43;7.22;;;;;;;12.26;86.61;101844.72;5074375;28;20045;-79
2022/01/01 04:55:34;;;;;;;13.90;7.82;;;;;;;12.29;86.12;101841.78;5074503;28;20045;-79
2022/01/01 04:58:01;;;;;;;13.80;6.40;;;;;;;12.30;85.99;101844.28;5075251;28;20411;-78
2022/01/01 05:00:29;;;;;;;13.48;6.78;;;;;;;12.24;86.04;101850.09;5075998;28;20131;-78
2022/01/01 05:02:57;;;;;;;13.63;6.47;;;;;;;12.30;85.79;101843.44;5076146;28;20059;-79
2022/01/01 05:05:26;;;;;;;13.15;6.15;;;;;;;12.36;85.15;101853.41;5074259;28;20068;-78
2022/01/01 05:07:52;;;;;;;15.85;6.40;;;;;;;12.31;85.55;101845.09;5074562;28;20140;-77
2022/01/01 05:10:19;;;;;;;15.27;6.18;;;;;;;12.26;85.62;101844.72;5074458;28;20057;-78
2022/01/01 05:12:46;;;;;;;13.90;5.82;;;;;;;12.24;85.56;101842.22;5075302;28;20052;-78
2022/01/01 05:15:13;;;;;;;11.45;6.22;;;;;;;12.27;84.97;101856.88;5075302;28;20094;-78
2022/01/01 05:17:39;;;;;;;15.40;6.10;;;;;;;12.24;85.03;101852.72;5071419;28;20136;-77
2022/01/01 05:20:07;;;;;;;12.27;6.50;;;;;;;12.30;84.73;101867.06;5071425;28;20084;-77
2022/01/01 05:22:35;;;;;;;13.02;6.05;;;;;;;12.32;84.60;101865.13;5076768;28;20051;-80
2022/01/01 05:25:02;;;;;;;13.48;6.32;;;;;;;12.38;84.15;101861.97;5078067;28;20134;-79
2022/01/01 05:27:30;;;;;;;13.88;6.38;;;;;;;12.32;84.30;101862.50;5079967;28;20131;-80
2022/01/01 05:29:56;;;;;;;14.18;6.20;;;;;;;12.27;84.38;101870.81;5081331;28;20131;-80
2022/01/01 05:32:24;;;;;;;13.02;5.70;;;;;;;12.31;84.19;101868.72;5081938;28;20486;-80
2022/01/01 05:34:50;;;;;;;12.93;6.07;;;;;;;12.36;84.33;101863.06;5083304;28;20103;-80
2022/01/01 05:37:17;;;;;;;12.18;6.43;;;;;;;12.37;83.83;101876.06;5079192;28;20132;-78
2022/01/01 05:39:45;;;;;;;17.52;6.03;;;;;;;12.38;83.86;101871.63;5078940;28;20139;-80
2022/01/01 05:42:11;;;;;;;14.30;5.88;;;;;;;12.31;84.03;101855.59;5082343;28;20268;-79
2022/01/01 05:44:38;;;;;;;9.70;5.90;;;;;;;12.33;84.15;101864.16;5080344;28;20075;-80
2022/01/01 05:47:05;;;;;;;14.32;5.78;;;;;;;12.29;84.05;101868.03;5071512;28;20148;-80
2022/01/01 05:49:35;;;;;;;12.85;5.97;;;;;;;12.23;84.82;101865.97;5080355;28;20052;-79
2022/01/01 05:52:01;;;;;;;14.73;6.00;;;;;;;12.24;83.93;101865.84;5078708;28;20071;-78
2022/01/01 05:54:28;;;;;;;12.70;6.05;;;;;;;12.21;84.31;101873.16;5074370;28;20641;-78
2022/01/01 05:56:56;;;;;;;10.18;5.32;;;;;;;12.18;84.66;101879.50;5075777;28;20132;-78
2022/01/01 05:59:22;;;;;;;10.38;5.55;;;;;;;12.16;84.60;101875.34;5077027;28;20481;-78
2022/01/01 06:01:49;;;;;;;14.05;5.70;;;;;;;12.15;84.78;101871.06;5079354;28;20131;-78
2022/01/01 06:04:16;;;;;;;14.48;5.95;;;;;;;12.15;84.87;101866.66;5077396;28;20052;-77
2022/01/01 06:06:42;;;;;;;14.05;5.72;;;;;;;12.14;84.71;101864.16;5077873;28;20074;-77
2022/01/01 06:09:09;;;;;;;10.35;5.47;;;;;;;12.12;84.43;101872.19;5083919;28;20100;-78
2022/01/01 06:11:36;;;;;;;15.40;5.95;;;;;;;12.13;84.71;101859.88;5081361;28;20116;-79
2022/01/01 06:14:04;;;;;;;10.80;5.60;;;;;;;12.21;83.70;101862.66;5079496;28;20136;-78
2022/01/01 06:16:31;;;;;;;13.05;5.60;;;;;;;12.16;84.22;101857.81;5079541;28;20135;-78
2022/01/01 06:18:57;;;;;;;10.18;5.07;;;;;;;12.12;83.98;101861.69;5077189;28;20048;-79
2022/01/01 06:21:24;;;;;;;14.68;5.38;;;;;;;12.20;83.89;101867.06;5079940;28;20147;-79
2022/01/01 06:23:50;;;;;;;12.02;5.68;;;;;;;12.16;84.09;101877.97;5079318;28;20131;-79
2022/01/01 06:26:17;;;;;;;12.93;5.88;;;;;;;12.11;84.62;101870.50;5079272;28;20108;-79
2022/01/01 06:28:43;;;;;;;12.88;5.72;;;;;;;12.08;84.34;101870.78;5079537;28;20080;-79
2022/01/01 06:31:11;;;;;;;13.38;5.20;;;;;;;12.10;84.62;101876.72;5080061;28;20512;-79
2022/01/01 06:33:38;;;;;;;12.45;5.68;;;;;;;12.04;84.85;101873.81;5080961;28;20117;-79
2022/01/01 06:36:05;;;;;;;12.57;6.30;;;;;;;12.05;84.45;101884.16;5080115;28;20095;-81
2022/01/01 06:38:32;;;;;;;14.20;5.18;;;;;;;12.11;84.43;101883.63;5080312;28;20112;-80
2022/01/01 06:40:58;;;;;;;12.60;5.75;;;;;;;12.08;84.23;101897.03;5079727;28;20135;-80
2022/01/01 06:43:25;;;;;;;12.55;5.28;;;;;;;12.05;84.80;101892.03;5079432;28;20487;-80
2022/01/01 06:45:51;;;;;;;12.95;5.00;;;;;;;12.04;84.45;101890.38;5093878;22;20134;-80
2022/01/01 06:48:19;;;;;;;15.25;5.60;;;;;;;12.03;84.25;101896.59;5099231;28;20237;-81
2022/01/01 06:50:46;;;;;;;13.80;5.15;;;;;;;12.01;84.57;101900.31;5093280;28;20084;-81
2022/01/01 06:53:13;;;;;;;10.80;5.53;;;;;;;12.10;83.68;101895.09;5085913;28;20087;-81
2022/01/01 06:55:40;;;;;;;12.10;4.88;;;;;;;12.10;83.81;101907.38;5070214;28;20461;-81
2022/01/01 06:58:07;;;;;;;15.30;5.47;;;;;;;12.03;84.18;101907.09;5067840;28;20048;-81
2022/01/01 07:00:37;;;;;;;8.27;4.78;;;;;;;12.02;84.28;101909.84;5063604;28;20135;-81
2022/01/01 07:03:04;;;;;;;8.57;5.03;;;;;;;11.96;84.19;101905.97;5079636;28;20041;-80
2022/01/01 07:05:32;;;;;;;13.38;5.43;;;;;;;12.02;83.63;101902.81;5079195;28;20082;-79
2022/01/01 07:07:59;;;;;;;12.52;5.18;;;;;;;11.99;84.05;101903.06;5079044;28;20273;-80
2022/01/01 07:10:28;;;;;;;14.73;5.28;;;;;;;12.06;83.73;101898.13;5079088;28;20131;-79
2022/01/01 07:12:55;;;;;;;9.27;4.38;;;;;;;12.02;83.36;101887.06;5078295;28;20040;-80
2022/01/01 07:15:21;;;;;;;14.38;5.63;;;;;;;12.16;82.83;101893.72;5077424;28;20491;-79
2022/01/01 07:17:53;;;;;;;13.18;4.82;;;;;;;12.05;82.95;101886.78;5077961;28;20055;-80
2022/01/01 07:20:28;;;;;;;14.50;5.18;;;;;;;12.09;82.84;101896.06;5079177;28;20076;-79
2022/01/01 07:22:57;;;;;;;12.13;5.53;;;;;;;12.07;82.45;101890.13;5078181;28;20059;-80
2022/01/01 07:25:31;;;;;;;10.80;5.05;;;;;;;12.01;82.77;101885.41;5078914;28;20056;-80
2022/01/01 07:28:04;;;;;;;10.38;5.03;;;;;;;12.03;82.69;101904.47;5067524;28;20053;-80
2022/01/01 07:30:52;;;;;;;17.40;5.28;;;;;;;11.91;82.65;101888.00;5042084;28;20048;-80
2022/01/01 07:33:39;;;;;;;12.65;5.07;;;;;;;12.09;82.83;101908.34;5058218;28;20068;-79
2022/01/01 07:36:08;;;;;;;12.45;5.00;;;;;;;12.03;82.74;101907.09;5059805;28;20132;-80
2022/01/01 07:38:44;;;;;;;10.57;5.15;;;;;;;12.05;83.16;101912.19;5058165;28;20099;-80
2022/01/01 07:41:12;;;;;;;11.35;4.43;;;;;;;11.95;82.72;101901.69;5063350;28;20080;-80
2022/01/01 07:43:43;;;;;;;12.25;6.57;;;;;;;12.02;82.52;101907.22;5076991;28;20049;-80
2022/01/01 07:46:11;;;;;;;12.35;5.20;;;;;;;12.01;83.01;101922.13;5076939;28;20068;-80
2022/01/01 07:48:39;;;;;;;11.25;5.20;;;;;;;12.03;82.78;101922.00;5076938;28;20079;-79
2022/01/01 07:51:07;;;;;;;10.20;5.25;;;;;;;12.08;82.54;101925.06;5076144;28;20052;-79
2022/01/01 07:53:34;;;;;;;15.00;7.72;;;;;;;12.08;82.85;101928.50;5075811;28;20078;-80
2022/01/01 07:56:04;;;;;;;11.35;6.50;;;;;;;11.98;82.69;101908.44;5076336;28;20052;-80
2022/01/01 07:58:32;;;;;;;11.40;5.40;;;;;;;12.04;82.99;101918.41;5083767;28;20415;-80
2022/01/01 08:01:04;;;;;;;13.52;5.15;;;;;;;12.04;82.32;101911.38;5090087;28;20059;-80
2022/01/01 08:03:31;;;;;;;13.10;5.22;;;;;;;12.16;82.02;101912.94;5082996;28;20079;-80
2022/01/01 08:05:58;;;;;;;12.38;4.63;;;;;;;12.14;82.00;101911.41;5113266;22;20122;-81
2022/01/01 08:08:25;;;;;;;14.02;5.82;;;;;;;12.22;81.77;101912.38;5044400;28;20131;-79
2022/01/01 08:10:51;;;;;;;12.73;5.80;;;;;;;12.21;81.85;101902.84;5053794;28;20112;-79
2022/01/01 08:13:24;;;;;;;11.55;7.57;;;;;;;12.33;81.37;101915.84;5053798;28;20053;-79
2022/01/01 08:15:51;;;;;;;24.40;14.98;;;;;;;12.34;81.01;101925.38;5057982;28;20069;-79
2022/01/01 08:18:18;;;;;;;17.05;9.20;;;;;;;12.40;80.91;101927.44;5059998;28;20167;-79
2022/01/01 08:20:45;;;;;;;18.67;10.52;;;;;;;12.45;80.51;101923.44;5059671;28;20052;-79
2022/01/01 08:23:12;;;;;;;12.90;6.05;;;;;;;12.45;80.37;101930.50;5057312;28;20131;-78
2022/01/01 08:25:39;;;;;;;10.20;6.53;;;;;;;12.53;80.19;101933.28;5058495;28;20076;-79
2022/01/01 08:28:09;;;;;;;11.80;5.80;;;;;;;12.55;79.79;101932.16;5057666;28;20072;-80
2022/01/01 08:30:37;;;;;;;10.05;5.90;;;;;;;12.62;79.80;101930.66;5058572;28;20063;-80
2022/01/01 08:33:04;;;;;;;12.15;5.28;;;;;;;12.62;79.43;101932.47;5058092;28;20083;-81
2022/01/01 08:35:31;;;;;;;9.05;4.80;;;;;;;12.64;79.30;101927.91;5058999;28;20088;-80
2022/01/01 08:37:57;;;;;;;11.32;5.50;;;;;;;12.74;79.29;101925.28;5058558;28;20148;-79
2022/01/01 08:40:24;;;;;;;8.60;5.25;;;;;;;12.81;78.95;101927.19;5059083;28;20073;-79
2022/01/01 08:42:50;;;;;;;10.32;5.45;;;;;;;13.01;78.41;101927.19;5059095;28;20088;-81
2022/01/01 08:45:21;;;;;;;11.32;4.78;;;;;;;13.09;78.44;101927.31;5058889;28;20456;-83
2022/01/01 08:47:49;;;;;;;9.10;4.78;;;;;;;13.05;78.17;101923.31;5060009;28;20105;-79
2022/01/01 08:50:16;;;;;;;11.00;5.03;;;;;;;13.01;78.07;101917.50;5060119;28;20052;-79
2022/01/01 08:52:44;;;;;;;8.50;4.40;;;;;;;13.03;78.00;101923.44;5057264;28;20065;-81
2022/01/01 08:55:11;;;;;;;13.73;4.80;;;;;;;13.01;78.34;101921.91;5055437;28;20140;-80
2022/01/01 08:57:38;;;;;;;14.10;8.88;;;;;;;13.01;78.19;101919.28;5056929;28;20645;-81
2022/01/01 09:00:08;;;;;;;10.43;6.75;;;;;;;13.04;78.64;101919.00;5062866;28;20075;-80
2022/01/01 09:02:35;;;;;;;10.68;5.88;;;;;;;12.93;79.10;101912.94;5062897;28;20073;-81
2022/01/01 09:05:03;;;;;;;24.35;17.73;;;;;;;12.94;78.64;101916.41;5063527;28;20147;-81
2022/01/01 09:07:31;;;;;;;12.32;6.80;;;;;;;12.89;79.34;101923.88;5062664;28;20044;-81
2022/01/01 09:09:58;;;;;;;10.13;5.00;;;;;;;12.92;78.57;101916.53;5062246;28;20113;-80
2022/01/01 09:12:25;;;;;;;10.55;6.75;;;;;;;12.95;79.01;101928.56;5062496;28;20083;-81
2022/01/01 09:14:51;;;;;;;9.02;5.97;;;;;;;13.03;78.71;101930.50;5063131;28;20151;-80
2022/01/01 09:17:19;;;;;;;13.15;8.80;;;;;;;13.06;78.55;101917.09;5062661;28;20068;-80
2022/01/01 09:19:45;;;;;;;8.82;4.82;;;;;;;13.04;77.92;101926.91;5063377;28;20076;-81
2022/01/01 09:22:13;;;;;;;13.32;8.00;;;;;;;13.10;77.95;101923.72;5061397;28;20105;-81
2022/01/01 09:24:40;;;;;;;15.15;8.20;;;;;;;13.23;77.65;101921.66;5050855;28;20816;-81
2022/01/01 09:27:07;;;;;;;13.15;6.18;;;;;;;13.34;77.62;101916.19;5040616;28;20117;-81
2022/01/01 09:29:34;;;;;;;11.80;4.90;;;;;;;13.40;76.83;101934.03;5040297;28;20045;-82
2022/01/01 09:32:02;;;;;;;7.35;4.72;;;;;;;13.34;77.20;101921.47;5039978;28;20103;-81
2022/01/01 09:34:28;;;;;;;11.65;5.65;;;;;;;13.35;76.93;101922.28;5042822;28;20041;-81
2022/01/01 09:36:57;;;;;;;29.25;18.23;;;;;;;13.43;77.14;101925.88;5047732;28;20476;-81
2022/01/01 09:39:25;;;;;;;22.27;16.38;;;;;;;13.55;76.62;101927.34;5059885;28;20094;-82
2022/01/01 09:41:52;;;;;;;8.35;5.28;;;;;;;13.60;76.17;101925.13;5061837;28;20108;-81
2022/01/01 09:44:21;;;;;;;10.98;6.07;;;;;;;13.65;75.91;101915.97;5056348;28;20453;-79
2022/01/01 09:46:50;;;;;;;8.38;5.22;;;;;;;13.63;75.96;101913.50;5060319;28;20053;-80
2022/01/01 09:49:18;;;;;;;9.07;5.20;;;;;;;13.70;75.94;101909.31;5054893;28;20128;-82
2022/01/01 09:51:45;;;;;;;10.20;6.97;;;;;;;13.76;75.79;101926.28;5056493;28;20072;-81
2022/01/01 09:54:12;;;;;;;11.15;7.40;;;;;;;13.85;75.47;101921.00;5061608;28;20076;-81
2022/01/01 09:56:41;;;;;;;9.32;4.80;;;;;;;13.74;75.13;101920.34;5062437;28;20103;-80
2022/01/01 09:59:08;;;;;;;10.88;5.95;;;;;;;13.87;75.28;101920.84;5057948;28;20076;-81
2022/01/01 10:01:35;;;;;;;8.55;5.68;;;;;;;13.74;75.88;101931.69;5060005;28;20127;-81
2022/01/01 10:07:47;;;;;;;9.57;5.55;;;;;;;13.54;76.17;101912.56;5064623;28;20059;-85
2022/01/01 10:10:28;;;;;;;16.25;5.40;;;;;;;13.66;76.20;101933.41;5066139;28;20420;-85
2022/01/01 10:13:39;;;;;;;7.82;4.70;;;;;;;13.63;76.22;101912.66;5065251;28;20048;-86
2022/01/01 10:16:16;;;;;;;9.13;4.72;;;;;;;13.81;76.15;101931.94;5060091;28;20053;-84
2022/01/01 10:19:12;;;;;;;13.15;5.00;;;;;;;13.86;75.61;101929.72;5066394;28;20158;-84
2022/01/01 10:21:41;;;;;;;10.75;5.13;;;;;;;14.02;75.59;101922.03;5067478;28;20049;-87
2022/01/01 10:27:42;;;;;;;9.20;5.10;;;;;;;13.93;75.34;101922.91;5066294;28;20072;-82
2022/01/01 10:30:13;;;;;;;8.07;5.07;;;;;;;13.90;75.67;101920.56;5064730;28;20055;-83
2022/01/01 10:33:03;;;;;;;9.95;4.88;;;;;;;13.64;75.67;101893.28;5063685;28;20072;-82
2022/01/01 10:35:34;;;;;;;8.32;4.60;;;;;;;13.68;76.37;101894.66;5064231;28;20045;-82
2022/01/01 10:38:04;;;;;;;9.48;4.50;;;;;;;13.82;75.71;101913.38;5063625;28;20076;-82
2022/01/01 10:40:31;;;;;;;10.98;5.25;;;;;;;13.74;76.48;101904.56;5063116;28;20057;-82
2022/01/01 10:42:57;;;;;;;10.60;4.97;;;;;;;13.87;76.03;101891.91;5063805;28;20052;-81
2022/01/01 10:45:36;;;;;;;10.23;4.68;;;;;;;13.83;76.43;101901.88;5062981;28;20045;-80
2022/01/01 10:48:22;;;;;;;9.45;5.20;;;;;;;13.89;76.52;101898.69;5059026;28;20099;-80
2022/01/01 10:50:53;;;;;;;10.85;5.43;;;;;;;14.01;76.14;101898.47;5057194;28;20049;-79
2022/01/01 10:53:24;;;;;;;8.68;4.95;;;;;;;13.98;76.70;101902.22;5059605;28;20127;-80
2022/01/01 10:55:54;;;;;;;10.93;5.20;;;;;;;14.06;76.22;101890.97;5055417;28;20068;-80
2022/01/01 10:58:22;;;;;;;11.05;5.43;;;;;;;13.98;76.20;101881.19;5059441;28;20048;-80
2022/01/01 11:00:50;;;;;;;11.80;5.22;;;;;;;14.21;76.08;101876.31;5059395;28;20103;-79
2022/01/01 11:03:20;;;;;;;10.13;5.70;;;;;;;14.32;75.40;101884.00;5058712;28;20049;-82
2022/01/01 11:05:48;;;;;;;11.48;5.70;;;;;;;14.32;75.88;101872.63;5059216;28;20048;-80
2022/01/01 11:08:15;;;;;;;13.35;5.70;;;;;;;14.16;76.47;101868.88;5062233;28;20151;-79
2022/01/01 11:10:43;;;;;;;8.45;5.10;;;;;;;14.32;76.17;101872.63;5060129;28;20052;-83
2022/01/01 11:13:11;;;;;;;10.07;5.53;;;;;;;14.19;75.53;101883.53;5059984;28;20055;-81
2022/01/01 11:15:38;;;;;;;11.60;5.20;;;;;;;14.01;75.98;101875.63;5064036;28;20069;-82
2022/01/01 11:18:05;;;;;;;10.10;5.32;;;;;;;14.07;76.32;101867.13;5065990;28;20053;-81
2022/01/01 11:20:35;;;;;;;10.80;5.18;;;;;;;14.04;76.59;101854.28;5065842;28;20119;-81
2022/01/01 11:23:05;;;;;;;9.18;4.63;;;;;;;14.03;76.52;101857.88;5060137;28;20056;-80
2022/01/01 11:25:34;;;;;;;9.27;4.95;;;;;;;13.97;76.86;101847.94;5061626;28;20076;-81
2022/01/01 11:28:00;;;;;;;11.73;5.53;;;;;;;14.12;76.84;101850.91;5062818;28;20044;-82
2022/01/01 11:30:30;;;;;;;10.35;5.68;;;;;;;13.98;77.16;101835.63;5064773;28;20094;-81
2022/01/01 11:33:02;;;;;;;11.23;5.30;;;;;;;14.04;77.60;101837.66;5065503;28;20044;-81
2022/01/01 11:35:31;;;;;;;10.30;4.80;;;;;;;14.16;77.34;101836.47;5065608;28;20049;-80
2022/01/01 11:38:05;;;;;;;8.50;4.45;;;;;;;14.21;76.78;101827.13;5065258;28;20082;-81